Weather at Crosswinds Airfield

Public forecast

Using degrees Fahrenheit for public forecast. Weather courtesy of forecast.io.

Closest aviation weather report (METAR) to Crosswinds Airfield

Closest report is Heritage Field, 6.3 nm (11.6 km) S. Retrieved 2020/09/27 03:11 UTC (26 minutes ago):

KPTW 270311Z AUTO 00000KT 9SM OVC015 19/18 A3003 RMK AO2 T01890183

Closest aviation forecast (TAF) to Crosswinds Airfield

Closest forecast is Reading Regional Carl A Spaatz Field, 18.1 nm (33.5 km) W. Retrieved 2020-09-27 00:24 UTC (3 hours ago):

TAF KRDG 262323Z 2700/2724 VRB03KT P6SM OVC007 FM270400 VRB02KT 1SM -DZ BR OVC003 FM271300 VRB02KT 5SM BR OVC008 FM271500 15005KT P6SM BKN015 FM271800 15005KT P6SM BKN025